createdAt,value
2022-12-03T00:00:47.207Z,20.77
2022-12-03T00:03:36.090Z,20.47
2022-12-03T00:06:34.386Z,19.53
2022-12-03T00:09:03.606Z,32.53
2022-12-03T00:11:33.459Z,38.10
2022-12-03T00:14:01.985Z,24.30
2022-12-03T00:16:30.303Z,17.23
2022-12-03T00:18:58.576Z,20.90
2022-12-03T00:21:27.085Z,24.17
2022-12-03T00:23:55.418Z,22.07
2022-12-03T00:26:23.833Z,21.17
2022-12-03T00:28:54.830Z,34.13
2022-12-03T00:31:23.606Z,16.40
2022-12-03T00:33:52.172Z,23.23
2022-12-03T00:36:20.932Z,20.73
2022-12-03T00:38:49.307Z,20.80
2022-12-03T00:41:17.603Z,16.60
2022-12-03T00:43:46.016Z,26.00
2022-12-03T00:46:20.890Z,29.97
2022-12-03T00:48:49.861Z,23.47
2022-12-03T00:51:18.307Z,18.87
2022-12-03T00:53:46.772Z,20.63
2022-12-03T00:56:15.118Z,23.13
2022-12-03T00:58:43.408Z,18.77
2022-12-03T01:01:11.734Z,22.50
2022-12-03T01:03:41.528Z,16.00
2022-12-03T01:06:10.269Z,16.70
2022-12-03T01:08:39.618Z,16.17
2022-12-03T01:11:29.475Z,16.67
2022-12-03T01:13:57.802Z,19.00
2022-12-03T01:16:26.213Z,18.20
2022-12-03T01:18:55.945Z,16.80
2022-12-03T01:21:24.248Z,16.03
2022-12-03T01:23:52.550Z,17.00
2022-12-03T01:26:21.207Z,18.67
2022-12-03T01:28:49.600Z,22.93
2022-12-03T01:31:35.276Z,22.33
2022-12-03T01:34:06.493Z,29.97
2022-12-03T01:36:35.324Z,22.27
2022-12-03T01:39:04.627Z,16.30
2022-12-03T01:41:33.682Z,16.67
2022-12-03T01:44:02.409Z,16.40
2022-12-03T01:46:38.485Z,16.77
2022-12-03T01:49:11.139Z,15.93
2022-12-03T01:51:39.577Z,17.53
2022-12-03T01:54:07.862Z,17.13
2022-12-03T01:56:36.274Z,18.90
2022-12-03T01:59:04.697Z,18.53
2022-12-03T02:01:33.117Z,16.47
2022-12-03T02:04:01.459Z,19.50
2022-12-03T02:06:31.738Z,18.87
2022-12-03T02:09:00.275Z,17.30
2022-12-03T02:11:32.407Z,15.80
2022-12-03T02:14:05.906Z,16.97
2022-12-03T02:16:36.378Z,17.83
2022-12-03T02:19:09.701Z,16.77
2022-12-03T02:21:48.241Z,18.73
2022-12-03T02:24:24.839Z,16.90
2022-12-03T02:26:54.640Z,16.10
2022-12-03T02:29:24.038Z,15.77
2022-12-03T02:31:52.630Z,15.77
2022-12-03T02:34:38.237Z,16.83
2022-12-03T02:37:08.924Z,16.27
2022-12-03T02:39:40.841Z,16.23
2022-12-03T02:42:28.943Z,16.50
2022-12-03T02:45:02.114Z,18.03
2022-12-03T02:47:34.982Z,16.20
2022-12-03T02:50:04.299Z,15.97
2022-12-03T02:52:32.773Z,17.07
2022-12-03T02:55:01.644Z,17.73
2022-12-03T02:57:31.359Z,16.53
2022-12-03T02:59:59.804Z,15.80
2022-12-03T03:02:29.280Z,16.67
2022-12-03T03:04:58.379Z,17.07
2022-12-03T03:07:27.048Z,18.13
2022-12-03T03:09:55.563Z,16.90
2022-12-03T03:12:23.848Z,15.97
2022-12-03T03:14:53.968Z,16.43
2022-12-03T03:17:22.771Z,17.63
2022-12-03T03:19:51.119Z,16.53
2022-12-03T03:22:20.195Z,17.40
2022-12-03T03:24:48.484Z,17.87
2022-12-03T03:27:16.862Z,16.77
2022-12-03T03:29:45.309Z,16.33
2022-12-03T03:32:15.023Z,17.87
2022-12-03T03:34:43.340Z,18.17
2022-12-03T03:37:11.740Z,14.00
2022-12-03T03:39:40.191Z,17.03
2022-12-03T03:42:09.566Z,16.17
2022-12-03T03:44:38.087Z,16.67
2022-12-03T03:47:06.584Z,17.53
2022-12-03T03:49:36.824Z,17.77
2022-12-03T03:52:05.368Z,17.57
2022-12-03T03:54:34.169Z,17.73
2022-12-03T03:57:02.858Z,17.60
2022-12-03T03:59:31.334Z,18.70
2022-12-03T04:01:59.656Z,18.33
2022-12-03T04:04:33.262Z,19.77
2022-12-03T04:07:03.210Z,19.60
2022-12-03T04:09:31.476Z,18.90
2022-12-03T04:12:17.216Z,17.97
2022-12-03T04:14:45.549Z,19.13
2022-12-03T04:17:13.892Z,18.43
2022-12-03T04:19:42.187Z,18.93
2022-12-03T04:22:40.532Z,18.80
2022-12-03T04:25:28.538Z,19.17
2022-12-03T04:28:14.050Z,19.37
2022-12-03T04:30:42.384Z,19.40
2022-12-03T04:33:39.579Z,20.07
2022-12-03T04:36:08.221Z,26.07
2022-12-03T04:38:37.835Z,21.50
2022-12-03T04:41:06.248Z,20.57
2022-12-03T04:43:56.077Z,21.17
2022-12-03T04:46:24.496Z,21.10
2022-12-03T04:48:53.837Z,20.17
2022-12-03T04:51:22.187Z,20.17
2022-12-03T04:53:52.185Z,18.83
2022-12-03T04:56:20.613Z,19.00
2022-12-03T04:58:48.932Z,21.07
2022-12-03T05:01:17.244Z,19.23
2022-12-03T05:03:45.594Z,20.97
2022-12-03T05:06:13.896Z,19.03
2022-12-03T05:08:42.286Z,19.70
2022-12-03T05:11:12.007Z,21.77
2022-12-03T05:13:40.254Z,21.07
2022-12-03T05:16:09.359Z,20.37
2022-12-03T05:18:37.819Z,20.73
2022-12-03T05:21:06.326Z,21.23
2022-12-03T05:23:34.841Z,21.47
2022-12-03T05:26:03.198Z,21.47
2022-12-03T05:28:33.005Z,20.70
2022-12-03T05:31:01.311Z,20.87
2022-12-03T05:33:30.655Z,23.13
2022-12-03T05:35:59.222Z,22.60
2022-12-03T05:38:28.172Z,25.10
2022-12-03T05:40:56.599Z,25.67
2022-12-03T05:43:24.230Z,25.67
2022-12-03T05:45:53.909Z,27.00
2022-12-03T05:48:22.364Z,24.73
2022-12-03T05:50:50.594Z,23.13
2022-12-03T05:53:19.039Z,23.17
2022-12-03T05:55:47.334Z,23.53
2022-12-03T05:58:15.586Z,23.17
2022-12-03T06:00:44.133Z,23.20
2022-12-03T06:03:13.851Z,23.20
2022-12-03T06:05:42.271Z,23.67
2022-12-03T06:08:10.769Z,23.90
2022-12-03T06:10:39.133Z,22.10
2022-12-03T06:13:07.510Z,22.87
2022-12-03T06:15:40.420Z,23.77
2022-12-03T06:18:13.454Z,22.83
2022-12-03T06:20:41.718Z,22.63
2022-12-03T06:23:10.099Z,23.27
2022-12-03T06:25:38.462Z,23.63
2022-12-03T06:28:07.436Z,24.47
2022-12-03T06:30:35.999Z,23.00
2022-12-03T06:33:04.279Z,22.63
2022-12-03T06:35:34.047Z,23.40
2022-12-03T06:38:02.465Z,23.80
2022-12-03T06:40:30.872Z,22.73
2022-12-03T06:42:59.206Z,23.50
2022-12-03T06:45:27.471Z,24.03
2022-12-03T06:47:55.831Z,24.47
2022-12-03T06:50:24.271Z,24.43
2022-12-03T06:52:53.968Z,23.37
2022-12-03T06:55:22.370Z,23.30
2022-12-03T06:57:50.696Z,21.80
2022-12-03T07:00:20.006Z,23.50
2022-12-03T07:02:48.403Z,24.77
2022-12-03T07:05:16.954Z,23.80
2022-12-03T07:07:45.396Z,23.47
2022-12-03T07:10:15.313Z,23.73
2022-12-03T07:12:43.624Z,23.50
2022-12-03T07:15:12.339Z,22.67
2022-12-03T07:17:40.682Z,24.67
2022-12-03T07:20:10.181Z,24.40
2022-12-03T07:22:38.536Z,22.83
2022-12-03T07:25:07.635Z,23.03
2022-12-03T07:27:37.298Z,23.70
2022-12-03T07:30:06.920Z,24.63
2022-12-03T07:32:35.225Z,24.70
2022-12-03T07:35:07.261Z,26.17
2022-12-03T07:37:36.024Z,25.20
2022-12-03T07:40:04.831Z,25.97
2022-12-03T07:42:33.166Z,24.97
2022-12-03T07:45:03.056Z,25.63
2022-12-03T07:47:31.326Z,26.20
2022-12-03T07:49:59.781Z,26.67
2022-12-03T07:52:30.654Z,25.77
2022-12-03T07:54:58.893Z,23.97
2022-12-03T07:57:27.337Z,26.23
2022-12-03T07:59:55.632Z,24.30
2022-12-03T08:02:25.326Z,23.80
2022-12-03T08:04:53.791Z,24.10
2022-12-03T08:07:22.357Z,25.63
2022-12-03T08:09:51.556Z,25.47
2022-12-03T08:12:24.816Z,25.83
2022-12-03T08:14:53.594Z,26.83
2022-12-03T08:17:22.076Z,25.67
2022-12-03T08:19:51.782Z,25.60
2022-12-03T08:22:20.041Z,25.97
2022-12-03T08:24:48.408Z,24.40
2022-12-03T08:27:20.404Z,25.40
2022-12-03T08:29:48.767Z,25.53
2022-12-03T08:32:17.234Z,25.00
2022-12-03T08:34:46.276Z,25.43
2022-12-03T08:37:18.935Z,25.77
2022-12-03T08:39:49.224Z,26.70
2022-12-03T08:42:38.503Z,27.40
2022-12-03T08:45:42.571Z,30.53
2022-12-03T08:48:32.606Z,27.30
2022-12-03T08:51:04.511Z,26.17
2022-12-03T08:53:37.006Z,24.80
2022-12-03T08:56:14.128Z,25.60
2022-12-03T08:58:44.215Z,25.93
2022-12-03T09:01:33.967Z,27.20
2022-12-03T09:04:27.587Z,25.67
2022-12-03T09:06:56.896Z,26.37
2022-12-03T09:09:26.662Z,25.53
2022-12-03T09:11:55.849Z,25.27
2022-12-03T09:14:24.466Z,24.60
2022-12-03T09:16:55.852Z,25.63
2022-12-03T09:19:25.095Z,23.53
2022-12-03T09:21:53.672Z,25.40
2022-12-03T09:24:22.038Z,25.67
2022-12-03T09:26:51.856Z,25.93
2022-12-03T09:29:20.255Z,26.13
2022-12-03T09:31:48.661Z,25.80
2022-12-03T09:34:17.109Z,26.03
2022-12-03T09:36:45.517Z,23.20
2022-12-03T09:39:13.843Z,24.80
2022-12-03T09:41:42.225Z,26.50
2022-12-03T09:44:17.637Z,23.97
2022-12-03T09:46:47.783Z,25.00
2022-12-03T09:49:19.582Z,23.47
2022-12-03T09:51:48.578Z,24.40
2022-12-03T09:54:24.923Z,24.27
2022-12-03T09:56:53.989Z,25.43
2022-12-03T09:59:26.251Z,25.40
2022-12-03T10:01:55.397Z,25.93
2022-12-03T10:04:24.012Z,24.70
2022-12-03T10:06:52.954Z,23.87
2022-12-03T10:09:27.696Z,25.70
2022-12-03T10:11:56.648Z,26.50
2022-12-03T10:14:26.763Z,24.57
2022-12-03T10:16:55.533Z,26.53
2022-12-03T10:19:27.657Z,21.60
2022-12-03T10:21:56.829Z,26.20
2022-12-03T10:24:28.621Z,25.80
2022-12-03T10:26:58.371Z,25.93
2022-12-03T10:29:33.651Z,24.53
2022-12-03T10:32:04.749Z,22.30
2022-12-03T10:34:35.408Z,23.13
2022-12-03T10:37:15.846Z,23.70
2022-12-03T10:40:01.820Z,23.20
2022-12-03T10:42:32.674Z,24.80
2022-12-03T10:45:26.254Z,24.00
2022-12-03T10:48:07.020Z,23.77
2022-12-03T10:50:36.057Z,23.73
2022-12-03T10:53:05.382Z,24.13
2022-12-03T10:55:39.852Z,25.00
2022-12-03T10:58:15.412Z,24.20
2022-12-03T11:00:45.202Z,23.33
2022-12-03T11:03:20.261Z,24.93
2022-12-03T11:05:48.625Z,23.40
2022-12-03T11:08:19.611Z,23.63
2022-12-03T11:10:56.991Z,22.97
2022-12-03T11:13:48.953Z,23.93
2022-12-03T11:17:12.288Z,26.10
2022-12-03T11:19:47.084Z,25.47
2022-12-03T11:22:28.802Z,22.97
2022-12-03T11:25:57.529Z,26.83
2022-12-03T11:28:37.518Z,23.77
2022-12-03T11:31:12.380Z,23.53
2022-12-03T11:33:44.053Z,23.87
2022-12-03T11:36:17.642Z,24.40
2022-12-03T11:38:53.634Z,25.47
2022-12-03T11:41:28.640Z,23.37
2022-12-03T11:44:32.685Z,25.10
2022-12-03T11:47:08.696Z,26.13
2022-12-03T11:49:47.081Z,25.10
2022-12-03T11:52:39.647Z,24.90
2022-12-03T11:55:17.588Z,24.07
2022-12-03T11:57:46.405Z,24.43
2022-12-03T12:00:23.943Z,23.87
2022-12-03T12:02:53.778Z,25.70
2022-12-03T12:05:27.767Z,25.20
2022-12-03T12:07:57.275Z,25.33
2022-12-03T12:10:47.541Z,23.13
2022-12-03T12:13:57.483Z,23.40
2022-12-03T12:16:46.089Z,25.97
2022-12-03T12:19:45.711Z,24.47
2022-12-03T12:22:21.459Z,24.57
2022-12-03T12:24:52.452Z,21.27
2022-12-03T12:27:22.913Z,22.53
2022-12-03T12:29:57.165Z,23.30
2022-12-03T12:32:28.167Z,24.17
2022-12-03T12:35:00.530Z,22.50
2022-12-03T12:37:35.484Z,23.90
2022-12-03T12:40:11.540Z,24.50
2022-12-03T12:42:44.058Z,22.63
2022-12-03T12:45:17.848Z,22.47
2022-12-03T12:47:51.166Z,23.60
2022-12-03T12:50:20.828Z,24.17
2022-12-03T12:52:53.526Z,22.10
2022-12-03T12:55:23.905Z,22.73
2022-12-03T12:57:52.708Z,21.63
2022-12-03T13:00:24.303Z,22.83
2022-12-03T13:02:57.606Z,23.40
2022-12-03T13:05:27.873Z,21.40
2022-12-03T13:07:58.054Z,22.00
2022-12-03T13:10:35.088Z,23.37
2022-12-03T13:13:25.425Z,21.30
2022-12-03T13:16:06.635Z,22.43
2022-12-03T13:18:40.975Z,22.97
2022-12-03T13:21:22.220Z,22.50
2022-12-03T13:23:53.648Z,21.13
2022-12-03T13:26:34.507Z,22.07
2022-12-03T13:29:13.323Z,21.67
2022-12-03T13:31:44.395Z,21.30
2022-12-03T13:34:20.039Z,21.63
2022-12-03T13:36:55.446Z,20.27
2022-12-03T13:39:32.343Z,19.60
2022-12-03T13:42:33.494Z,21.17
2022-12-03T13:45:03.893Z,21.43
2022-12-03T13:47:33.168Z,21.07
2022-12-03T13:50:11.369Z,20.50
2022-12-03T13:52:39.685Z,20.07
2022-12-03T13:55:12.695Z,21.33
2022-12-03T13:57:41.121Z,22.47
2022-12-03T14:00:11.152Z,20.57
2022-12-03T14:02:39.957Z,22.47
2022-12-03T14:05:08.791Z,21.30
2022-12-03T14:07:37.362Z,21.53
2022-12-03T14:10:06.407Z,21.00
2022-12-03T14:12:36.271Z,21.67
2022-12-03T14:15:06.332Z,23.07
2022-12-03T14:17:34.618Z,22.73
2022-12-03T14:20:04.063Z,22.83
2022-12-03T14:22:32.527Z,21.60
2022-12-03T14:25:00.926Z,22.87
2022-12-03T14:27:29.213Z,23.47
2022-12-03T14:29:59.256Z,23.30
2022-12-03T14:32:27.618Z,22.83
2022-12-03T14:34:55.895Z,23.93
2022-12-03T14:37:24.403Z,24.27
2022-12-03T14:39:53.142Z,23.77
2022-12-03T14:42:21.542Z,23.33
2022-12-03T14:44:51.478Z,24.10
2022-12-03T14:47:23.584Z,24.70
2022-12-03T14:49:53.140Z,24.50
2022-12-03T14:52:21.886Z,23.87
2022-12-03T14:54:50.128Z,21.43
2022-12-03T14:57:18.527Z,21.80
2022-12-03T14:59:47.964Z,23.50
2022-12-03T15:02:16.282Z,23.03
2022-12-03T15:04:45.973Z,22.40
2022-12-03T15:07:14.298Z,23.40
2022-12-03T15:09:42.570Z,23.57
2022-12-03T15:12:10.864Z,21.93
2022-12-03T15:14:39.259Z,21.57
2022-12-03T15:17:07.630Z,21.47
2022-12-03T15:19:36.270Z,21.87
2022-12-03T15:22:05.983Z,22.77
2022-12-03T15:24:34.277Z,21.53
2022-12-03T15:27:02.537Z,23.73
2022-12-03T15:29:32.517Z,21.97
2022-12-03T15:32:01.111Z,22.87
2022-12-03T15:34:29.385Z,22.70
2022-12-03T15:36:57.723Z,22.50
2022-12-03T15:39:27.899Z,24.30
2022-12-03T15:41:56.392Z,26.53
2022-12-03T15:44:24.677Z,25.60
2022-12-03T15:46:53.211Z,26.20
2022-12-03T15:49:21.565Z,24.80
2022-12-03T15:51:49.924Z,27.93
2022-12-03T15:54:18.380Z,26.63
2022-12-03T15:56:51.489Z,25.30
2022-12-03T15:59:22.396Z,24.13
2022-12-03T16:01:50.706Z,24.87
2022-12-03T16:04:19.133Z,24.87
2022-12-03T16:06:47.454Z,23.97
2022-12-03T16:09:15.842Z,21.10
2022-12-03T16:11:44.153Z,24.73
2022-12-03T16:14:13.743Z,23.60
2022-12-03T16:16:42.114Z,22.50
2022-12-03T16:19:10.513Z,23.77
2022-12-03T16:21:38.861Z,22.07
2022-12-03T16:24:07.546Z,22.73
2022-12-03T16:26:35.952Z,22.00
2022-12-03T16:29:04.429Z,22.93
2022-12-03T16:31:34.179Z,22.20
2022-12-03T16:34:02.704Z,23.03
2022-12-03T16:36:31.026Z,22.00
2022-12-03T16:38:59.289Z,21.53
2022-12-03T16:41:27.916Z,20.53
2022-12-03T16:43:56.212Z,21.10
2022-12-03T16:46:26.821Z,22.27
2022-12-03T16:48:58.019Z,21.77
2022-12-03T16:51:27.248Z,19.90
2022-12-03T16:53:56.004Z,20.67
2022-12-03T16:56:24.434Z,22.40
2022-12-03T16:58:52.793Z,20.57
2022-12-03T17:01:21.291Z,20.00
2022-12-03T17:03:49.526Z,20.00
2022-12-03T17:06:19.271Z,21.13
2022-12-03T17:08:49.741Z,21.20
2022-12-03T17:11:19.019Z,23.63
2022-12-03T17:13:47.509Z,20.10
2022-12-03T17:16:15.769Z,22.13
2022-12-03T17:18:44.202Z,22.53
2022-12-03T17:21:12.482Z,22.07
2022-12-03T17:23:42.136Z,22.40
2022-12-03T17:26:10.545Z,23.77
2022-12-03T17:28:38.880Z,23.53
2022-12-03T17:31:07.403Z,23.00
2022-12-03T17:33:35.766Z,23.70
2022-12-03T17:36:04.123Z,23.97
2022-12-03T17:38:37.348Z,24.57
2022-12-03T17:41:09.140Z,26.63
2022-12-03T17:43:37.429Z,25.10
2022-12-03T17:46:06.733Z,26.27
2022-12-03T17:48:35.386Z,26.00
2022-12-03T17:51:03.853Z,27.67
2022-12-03T17:53:32.119Z,26.37
2022-12-03T17:56:00.483Z,27.63
2022-12-03T17:58:30.172Z,28.23
2022-12-03T18:01:02.392Z,27.53
2022-12-03T18:03:31.892Z,25.33
2022-12-03T18:06:00.534Z,28.80
2022-12-03T18:08:28.940Z,28.50
2022-12-03T18:10:57.450Z,27.50
2022-12-03T18:13:25.795Z,28.43
2022-12-03T18:15:55.989Z,29.17
2022-12-03T18:18:24.343Z,29.77
2022-12-03T18:20:54.236Z,32.77
2022-12-03T18:23:22.633Z,40.40
2022-12-03T18:25:50.966Z,40.30
2022-12-03T18:28:19.408Z,42.07
2022-12-03T18:30:52.403Z,30.97
2022-12-03T18:33:23.606Z,31.43
2022-12-03T18:35:54.890Z,32.80
2022-12-03T18:38:27.145Z,33.00
2022-12-03T18:40:57.077Z,32.10
2022-12-03T18:43:28.275Z,30.30
2022-12-03T18:45:56.592Z,31.50
2022-12-03T18:48:26.492Z,29.80
2022-12-03T18:50:56.513Z,28.67
2022-12-03T18:53:24.791Z,31.70
2022-12-03T18:55:53.072Z,30.17
2022-12-03T18:58:21.521Z,38.90
2022-12-03T19:00:49.947Z,38.93
2022-12-03T19:03:18.402Z,34.53
2022-12-03T19:05:48.063Z,31.17
2022-12-03T19:08:16.469Z,31.37
2022-12-03T19:10:44.836Z,30.47
2022-12-03T19:13:13.242Z,32.07
2022-12-03T19:15:41.642Z,30.13
2022-12-03T19:18:11.234Z,30.90
2022-12-03T19:20:42.094Z,29.80
2022-12-03T19:23:12.186Z,29.70
2022-12-03T19:25:40.455Z,31.83
2022-12-03T19:28:08.909Z,30.27
2022-12-03T19:30:37.199Z,33.03
2022-12-03T19:33:05.602Z,32.90
2022-12-03T19:35:33.858Z,32.37
2022-12-03T19:38:02.161Z,32.30
2022-12-03T19:40:32.223Z,32.57
2022-12-03T19:43:00.524Z,35.57
2022-12-03T19:45:29.035Z,31.40
2022-12-03T19:48:00.358Z,32.13
2022-12-03T19:50:28.916Z,31.57
2022-12-03T19:52:59.607Z,30.77
2022-12-03T19:55:27.895Z,31.93
2022-12-03T19:57:57.545Z,32.60
2022-12-03T20:00:25.896Z,31.73
2022-12-03T20:02:54.251Z,29.87
2022-12-03T20:05:22.615Z,30.97
2022-12-03T20:07:51.073Z,30.20
2022-12-03T20:10:19.544Z,30.00
2022-12-03T20:12:47.991Z,29.53
2022-12-03T20:15:17.922Z,30.30
2022-12-03T20:17:46.153Z,28.27
2022-12-03T20:20:14.798Z,29.30
2022-12-03T20:22:43.149Z,28.07
2022-12-03T20:25:11.931Z,28.43
2022-12-03T20:27:40.214Z,27.50
2022-12-03T20:30:10.062Z,25.23
2022-12-03T20:32:45.063Z,30.03
2022-12-03T20:35:13.987Z,28.07
2022-12-03T20:37:42.333Z,29.30
2022-12-03T20:40:11.595Z,28.47
2022-12-03T20:42:39.912Z,32.90
2022-12-03T20:45:09.535Z,32.27
2022-12-03T20:47:39.345Z,36.30
2022-12-03T20:50:09.035Z,33.13
2022-12-03T20:52:37.560Z,31.07
2022-12-03T20:55:06.559Z,33.73
2022-12-03T20:57:34.824Z,30.33
2022-12-03T21:00:03.460Z,28.27
2022-12-03T21:02:31.786Z,29.90
2022-12-03T21:05:01.542Z,29.73
2022-12-03T21:07:29.970Z,30.30
2022-12-03T21:09:58.286Z,29.03
2022-12-03T21:12:28.169Z,29.20
2022-12-03T21:14:56.519Z,30.07
2022-12-03T21:17:24.899Z,29.40
2022-12-03T21:19:53.446Z,29.70
2022-12-03T21:22:24.420Z,30.63
2022-12-03T21:24:52.715Z,30.80
2022-12-03T21:27:21.966Z,29.57
2022-12-03T21:29:50.834Z,31.30
2022-12-03T21:32:19.399Z,30.20
2022-12-03T21:34:47.836Z,32.83
2022-12-03T21:37:46.059Z,30.00
2022-12-03T21:40:15.548Z,30.50
2022-12-03T21:42:43.936Z,33.87
2022-12-03T21:45:13.441Z,32.83
2022-12-03T21:47:42.267Z,33.27
2022-12-03T21:50:12.315Z,56.10
2022-12-03T21:52:40.638Z,42.53
2022-12-03T21:55:11.558Z,68.87
2022-12-03T21:57:39.983Z,48.03
2022-12-03T22:00:09.973Z,80.77
2022-12-03T22:02:40.114Z,34.70
2022-12-03T22:05:09.522Z,38.93
2022-12-03T22:07:39.392Z,42.57
2022-12-03T22:10:11.725Z,49.93
2022-12-03T22:12:40.916Z,68.77
2022-12-03T22:15:13.521Z,75.97
2022-12-03T22:17:46.797Z,55.57
2022-12-03T22:20:15.334Z,38.60
2022-12-03T22:22:43.675Z,48.47
2022-12-03T22:25:13.556Z,41.87
2022-12-03T22:27:41.868Z,44.23
2022-12-03T22:30:11.010Z,31.27
2022-12-03T22:32:39.309Z,54.17
2022-12-03T22:35:08.261Z,49.20
2022-12-03T22:37:36.729Z,35.83
2022-12-03T22:40:06.410Z,35.00
2022-12-03T22:42:36.093Z,30.87
2022-12-03T22:45:04.753Z,36.07
2022-12-03T22:47:33.054Z,34.13
2022-12-03T22:50:01.333Z,30.87
2022-12-03T22:52:29.648Z,33.90
2022-12-03T22:54:57.859Z,33.33
2022-12-03T22:57:26.245Z,35.47
2022-12-03T22:59:56.275Z,34.63
2022-12-03T23:02:24.846Z,33.07
2022-12-03T23:04:56.472Z,34.20
2022-12-03T23:07:24.829Z,33.50
2022-12-03T23:09:54.359Z,33.97
2022-12-03T23:12:22.906Z,34.77
2022-12-03T23:14:56.011Z,34.03
2022-12-03T23:17:24.477Z,32.90
2022-12-03T23:19:53.427Z,34.40
2022-12-03T23:22:22.110Z,65.27
2022-12-03T23:24:50.396Z,41.40
2022-12-03T23:27:18.815Z,36.07
2022-12-03T23:29:47.155Z,52.80
2022-12-03T23:32:17.300Z,35.30
2022-12-03T23:34:45.920Z,53.27
2022-12-03T23:37:14.272Z,52.00
2022-12-03T23:39:42.573Z,38.20
2022-12-03T23:42:10.874Z,35.97
2022-12-03T23:44:39.271Z,33.57
2022-12-03T23:47:07.568Z,41.27
2022-12-03T23:49:37.696Z,48.43
2022-12-03T23:52:06.058Z,42.27
2022-12-03T23:54:34.379Z,52.57
2022-12-03T23:57:02.806Z,52.03
2022-12-03T23:59:31.192Z,39.03
